Time;durP1;ratioP1;P1;durP2;ratioP2;P2;SDS_P1;SDS_P2;PMS_P1;PMS_P2;Temp;Humidity;BMP_temperature;BMP_pressure;BME280_temperature;BME280_humidity;BME280_pressure;Samples;Min_cycle;Max_cycle;Signal;HPM_P1;HPM_P2
2022/02/05 00:03:19;;;;;;;45.25;25.40;;;;;;;2.92;99.13;99299.19;1666542;86;25596;-68
2022/02/05 00:05:52;;;;;;;44.50;25.32;;;;;;;2.93;99.13;99299.45;1665605;86;28060;-68
2022/02/05 00:08:27;;;;;;;48.15;25.80;;;;;;;2.91;99.04;99304.27;1665485;86;25956;-69
2022/02/05 00:43:12;;;;;;;50.73;26.55;;;;;;;2.88;98.27;99266.09;1664946;84;25489;-68
2022/02/05 00:45:45;;;;;;;52.80;27.27;;;;;;;2.88;98.31;99269.58;1660395;86;28029;-68
2022/02/05 00:48:13;;;;;;;52.13;26.80;;;;;;;2.85;98.29;99272.02;1636859;86;25826;-68
2022/02/05 00:50:45;;;;;;;51.15;26.75;;;;;;;2.89;98.19;99261.80;1660641;86;25673;-68
2022/02/05 00:53:23;;;;;;;48.23;27.02;;;;;;;2.89;98.08;99261.80;1660095;86;25657;-68
2022/02/05 00:55:45;;;;;;;54.18;27.90;;;;;;;2.91;98.13;99252.17;1659057;86;25585;-69
2022/02/05 00:58:09;;;;;;;47.75;24.70;;;;;;;2.91;98.01;99249.50;1660161;86;27362;-68
2022/02/05 01:00:40;;;;;;;53.73;26.00;;;;;;;2.91;97.85;99248.17;1660366;86;25614;-68
2022/02/05 01:03:07;;;;;;;52.95;27.13;;;;;;;2.91;97.91;99241.48;1660431;86;25643;-69
2022/02/05 01:05:38;;;;;;;47.20;25.77;;;;;;;2.91;97.90;99237.48;1660338;86;25802;-68
2022/02/05 01:08:09;;;;;;;49.85;26.52;;;;;;;2.90;97.70;99233.23;1660574;86;25222;-69
2022/02/05 01:10:39;;;;;;;46.70;25.32;;;;;;;2.91;97.73;99228.95;1660518;86;27469;-69
2022/02/05 01:13:09;;;;;;;45.95;25.35;;;;;;;2.92;97.69;99225.73;1660308;86;25383;-69
2022/02/05 01:15:41;;;;;;;46.08;25.08;;;;;;;2.92;97.68;99227.06;1660114;86;25477;-69
2022/02/05 01:18:06;;;;;;;45.60;26.87;;;;;;;2.91;97.56;99231.63;1659689;86;25657;-69
2022/02/05 01:23:06;;;;;;;44.40;24.18;;;;;;;2.94;97.52;99228.36;1660465;86;26932;-69
2022/02/05 01:25:36;;;;;;;45.23;25.62;;;;;;;2.94;97.45;99224.35;1659955;86;25683;-69
2022/02/05 01:28:06;;;;;;;44.25;23.98;;;;;;;2.96;97.47;99226.23;1659854;86;25476;-69
2022/02/05 01:30:32;;;;;;;46.75;23.67;;;;;;;2.95;97.43;99224.63;1659585;86;25984;-69
2022/02/05 01:52:35;;;;;;;45.67;24.05;;;;;;;3.00;97.05;99190.38;1660254;86;25613;-67
2022/02/05 01:57:52;;;;;;;39.53;22.13;;;;;;;3.03;97.03;99187.66;1638879;86;26400;-67
2022/02/05 02:05:55;;;;;;;41.63;22.10;;;;;;;3.07;97.04;99180.69;1660234;86;25593;-67
2022/02/05 02:16:20;;;;;;;40.03;21.75;;;;;;;3.09;96.67;99172.63;1660268;86;27427;-68
2022/02/05 02:24:00;;;;;;;40.55;22.13;;;;;;;3.11;96.70;99161.10;1560355;92;25698;-68
2022/02/05 02:26:38;;;;;;;40.80;23.00;;;;;;;3.11;96.71;99152.30;1560376;92;25667;-68
2022/02/05 02:29:03;;;;;;;40.33;21.55;;;;;;;3.11;96.64;99155.77;1560335;92;27423;-69
2022/02/05 02:31:27;;;;;;;40.20;21.27;;;;;;;3.11;96.57;99152.30;1560259;90;25589;-69
2022/02/05 02:33:55;;;;;;;43.48;22.17;;;;;;;3.12;96.58;99145.89;1560461;92;25674;-69
2022/02/05 02:36:32;;;;;;;40.58;21.75;;;;;;;3.11;96.49;99141.06;1560270;91;25795;-67
2022/02/05 02:38:51;;;;;;;41.55;22.37;;;;;;;3.11;96.54;99148.30;1540725;92;25770;-67
2022/02/05 02:41:26;;;;;;;36.60;21.55;;;;;;;3.12;96.52;99148.01;1560310;92;27403;-67
2022/02/05 02:43:47;;;;;;;35.85;20.70;;;;;;;3.14;96.46;99137.04;1562877;90;25739;-69
2022/02/05 02:46:13;;;;;;;39.18;20.90;;;;;;;3.15;96.51;99129.26;1571055;91;25795;-68
2022/02/05 02:48:44;;;;;;;36.33;20.77;;;;;;;3.16;96.52;99128.19;1571062;91;25624;-68
2022/02/05 02:56:49;;;;;;;37.20;18.47;;;;;;;3.23;96.28;99120.59;1571102;91;25780;-68
2022/02/05 02:59:08;;;;;;;36.28;19.77;;;;;;;3.24;96.02;99114.19;1641938;85;25424;-69
2022/02/05 03:01:31;;;;;;;33.20;20.48;;;;;;;3.27;95.87;99108.27;1671392;84;25845;-68
2022/02/05 03:03:57;;;;;;;33.83;19.10;;;;;;;3.29;95.56;99107.98;1672139;85;25574;-68
2022/02/05 03:06:24;;;;;;;34.65;18.75;;;;;;;3.31;95.73;99119.95;1671998;85;27426;-68
2022/02/05 03:08:50;;;;;;;34.08;18.98;;;;;;;3.32;95.44;99108.71;1672000;85;25743;-68
2022/02/05 03:11:19;;;;;;;33.85;18.67;;;;;;;3.33;95.30;99095.06;1672061;84;25662;-68
2022/02/05 03:13:46;;;;;;;35.33;18.87;;;;;;;3.35;95.17;99109.48;1672009;83;25686;-68
2022/02/05 03:16:21;;;;;;;30.23;17.27;;;;;;;3.38;94.89;99096.09;1672081;84;25624;-68
2022/02/05 03:19:00;;;;;;;30.20;18.50;;;;;;;3.39;94.71;99116.37;1671516;84;27451;-68
2022/02/05 03:21:14;;;;;;;30.70;18.23;;;;;;;3.42;94.98;99109.91;1670342;85;25601;-68
2022/02/05 03:23:41;;;;;;;30.77;17.55;;;;;;;3.43;94.46;99104.03;1672041;85;25561;-68
2022/02/05 03:26:07;;;;;;;31.40;17.73;;;;;;;3.45;94.37;99107.98;1672108;85;25653;-69
2022/02/05 03:28:35;;;;;;;30.82;16.23;;;;;;;3.48;94.45;99095.38;1672067;85;25498;-69
2022/02/05 03:31:02;;;;;;;31.15;17.50;;;;;;;3.50;94.00;99095.88;1672048;85;27328;-69
2022/02/05 03:33:28;;;;;;;28.30;16.02;;;;;;;3.55;94.27;99103.04;1671961;85;25400;-69
2022/02/05 03:35:54;;;;;;;28.27;15.83;;;;;;;3.59;94.19;99103.25;1672000;85;25640;-69
2022/02/05 03:38:20;;;;;;;28.35;16.02;;;;;;;3.61;93.58;99107.75;1672039;85;34759;-69
2022/02/05 03:40:46;;;;;;;31.50;16.60;;;;;;;3.64;93.77;99107.96;1672112;84;32391;-69
2022/02/05 03:43:13;;;;;;;31.20;17.07;;;;;;;3.68;94.10;99092.16;1672094;85;27608;-69
2022/02/05 03:45:39;;;;;;;27.95;15.05;;;;;;;3.67;94.48;99091.89;1661311;84;25437;-69
2022/02/05 03:48:06;;;;;;;32.83;16.17;;;;;;;3.64;94.59;99099.94;1660210;86;25631;-69
2022/02/05 03:50:33;;;;;;;26.10;15.55;;;;;;;3.62;95.04;99090.09;1660202;86;25699;-69
2022/02/05 03:53:04;;;;;;;30.43;15.93;;;;;;;3.58;95.15;99095.78;1660251;86;25487;-69
2022/02/05 03:55:30;;;;;;;27.10;15.03;;;;;;;3.55;95.37;99088.33;1660231;86;27511;-69
2022/02/05 03:57:56;;;;;;;26.82;15.90;;;;;;;3.52;95.60;99084.38;1660211;86;25630;-69
2022/02/05 04:00:23;;;;;;;29.90;16.12;;;;;;;3.49;96.03;99088.96;1660204;86;25638;-69
2022/02/05 04:02:50;;;;;;;27.62;15.25;;;;;;;3.47;96.19;99075.07;1660161;86;25636;-69
2022/02/05 04:05:17;;;;;;;23.10;13.62;;;;;;;3.46;96.31;99078.84;1660231;86;25453;-69
2022/02/05 04:07:47;;;;;;;26.17;15.08;;;;;;;3.44;96.47;99079.69;1660242;86;27557;-69
2022/02/05 04:10:15;;;;;;;23.95;15.05;;;;;;;3.45;96.64;99077.80;1660029;86;25507;-69
2022/02/05 04:18:09;;;;;;;22.07;13.58;;;;;;;3.44;97.03;99073.52;1660409;86;25675;-70
2022/02/05 04:20:35;;;;;;;21.70;13.70;;;;;;;3.43;96.94;99075.41;1660466;86;27371;-69
2022/02/05 04:23:01;;;;;;;21.52;12.93;;;;;;;3.43;97.18;99079.42;1660432;86;25732;-69
2022/02/05 04:25:28;;;;;;;26.20;13.60;;;;;;;3.45;97.12;99064.43;1660472;86;25611;-69
2022/02/05 04:27:54;;;;;;;22.52;13.62;;;;;;;3.45;97.14;99061.20;1660437;86;25641;-69
2022/02/05 04:30:20;;;;;;;26.25;13.28;;;;;;;3.45;97.09;99059.87;1636578;86;25438;-69
2022/02/05 04:32:46;;;;;;;22.00;12.93;;;;;;;3.46;97.01;99059.34;1660516;86;27498;-69
2022/02/05 04:35:12;;;;;;;21.42;12.82;;;;;;;3.48;97.11;99061.97;1660278;86;25472;-69
2022/02/05 04:37:39;;;;;;;20.00;12.60;;;;;;;3.50;97.20;99065.69;1660420;86;25582;-69
2022/02/05 04:40:25;;;;;;;18.37;11.57;;;;;;;3.54;97.21;99060.00;1660296;86;26288;-69
2022/02/05 04:42:50;;;;;;;24.92;12.58;;;;;;;3.54;97.18;99067.49;1658559;86;25492;-69
2022/02/05 04:48:02;;;;;;;18.65;10.90;;;;;;;3.63;97.29;99058.81;1667001;86;25480;-69
2022/02/05 04:50:51;;;;;;;17.98;10.35;;;;;;;3.65;97.27;99053.41;1664490;85;25606;-69
2022/02/05 04:53:25;;;;;;;16.65;11.20;;;;;;;3.65;97.16;99056.08;1664069;86;25830;-69
2022/02/05 05:08:38;;;;;;;10.25;6.92;;;;;;;3.84;96.04;99080.09;1587427;90;25790;-69
2022/02/05 05:21:41;;;;;;;1.42;1.32;;;;;;;3.80;92.65;99129.93;1549240;92;25527;-72
2022/02/05 05:24:08;;;;;;;1.50;1.20;;;;;;;3.71;89.88;99154.40;1549220;92;27398;-72
2022/02/05 05:26:37;;;;;;;1.20;1.10;;;;;;;3.64;90.04;99133.92;1549112;92;25743;-72
2022/02/05 05:29:04;;;;;;;1.32;1.22;;;;;;;3.52;89.00;99135.70;1549314;92;25570;-71
2022/02/05 05:31:30;;;;;;;3.08;0.98;;;;;;;3.47;89.17;99155.27;1549136;92;25761;-71
2022/02/05 05:33:57;;;;;;;1.45;1.05;;;;;;;3.41;89.89;99159.67;1549246;92;25699;-72
2022/02/05 05:36:23;;;;;;;1.10;0.90;;;;;;;3.33;89.34;99185.16;1549144;92;27146;-72
2022/02/05 05:38:49;;;;;;;1.27;1.12;;;;;;;3.27;90.33;99200.99;1611500;89;25705;-71
2022/02/05 05:41:15;;;;;;;1.10;1.00;;;;;;;3.19;90.28;99177.05;1612311;89;25496;-72
2022/02/05 05:44:03;;;;;;;1.25;1.12;;;;;;;3.12;91.15;99200.11;1612270;89;25740;-72
2022/02/05 05:46:19;;;;;;;1.40;1.30;;;;;;;3.06;91.47;99219.16;1591724;87;25910;-72
2022/02/05 05:51:16;;;;;;;1.40;1.30;;;;;;;2.91;91.85;99238.30;1584238;90;25557;-72
2022/02/05 05:53:43;;;;;;;2.05;1.20;;;;;;;2.83;92.21;99248.27;1584361;90;25491;-72
2022/02/05 05:56:09;;;;;;;1.85;1.10;;;;;;;2.74;92.29;99238.73;1584216;90;25739;-72
2022/02/05 05:58:35;;;;;;;1.20;1.10;;;;;;;2.69;92.04;99236.64;1662564;85;25810;-72
2022/02/05 06:01:02;;;;;;;2.00;1.80;;;;;;;2.65;92.29;99271.67;1674321;85;27372;-72
2022/02/05 06:03:28;;;;;;;2.05;1.55;;;;;;;2.62;92.28;99274.34;1674252;85;25581;-72
2022/02/05 06:05:54;;;;;;;2.37;1.60;;;;;;;2.58;92.23;99292.02;1674249;85;25645;-72
2022/02/05 06:08:21;;;;;;;2.77;2.05;;;;;;;2.58;92.29;99288.80;1674246;85;25820;-72
2022/02/05 06:10:47;;;;;;;4.40;2.30;;;;;;;2.56;92.13;99290.17;1674340;85;25650;-72
2022/02/05 06:13:14;;;;;;;3.75;1.98;;;;;;;2.55;91.93;99317.38;1674335;85;27351;-71
2022/02/05 06:15:43;;;;;;;2.15;1.80;;;;;;;2.55;92.05;99324.60;1674227;85;25650;-71
2022/02/05 06:18:10;;;;;;;1.80;1.70;;;;;;;2.55;92.00;99328.61;1674461;85;25612;-71
2022/02/05 06:20:38;;;;;;;1.82;1.60;;;;;;;2.52;91.71;99327.31;1674302;85;25552;-72
2022/02/05 06:23:05;;;;;;;1.92;1.72;;;;;;;2.53;91.74;99346.78;1674296;85;25525;-72
2022/02/05 06:25:33;;;;;;;2.10;1.55;;;;;;;2.53;91.80;99361.47;1674255;85;27952;-71
2022/02/05 06:28:00;;;;;;;1.67;1.30;;;;;;;2.51;91.46;99366.30;1674179;85;25506;-71
2022/02/05 06:30:26;;;;;;;2.47;1.80;;;;;;;2.48;91.05;99360.95;1674277;85;25589;-72
2022/02/05 06:32:53;;;;;;;4.42;1.52;;;;;;;2.48;90.90;99356.95;1636907;87;25687;-72
2022/02/05 06:35:21;;;;;;;5.75;1.65;;;;;;;2.47;91.09;99360.72;1660011;86;25655;-72
2022/02/05 06:37:49;;;;;;;2.55;1.40;;;;;;;2.49;90.97;99364.45;1674271;85;27391;-72
2022/02/05 06:40:15;;;;;;;2.10;1.20;;;;;;;2.49;90.86;99385.25;1674371;85;25593;-72
2022/02/05 06:42:46;;;;;;;2.52;1.67;;;;;;;2.48;90.93;99385.53;1674277;85;25596;-72
2022/02/05 06:45:15;;;;;;;1.50;1.32;;;;;;;2.49;90.66;99395.14;1672207;85;25563;-72
2022/02/05 06:47:42;;;;;;;3.30;1.60;;;;;;;2.46;90.55;99397.81;1667295;85;25601;-73
2022/02/05 06:50:09;;;;;;;2.12;1.45;;;;;;;2.46;90.70;99411.70;1667104;85;27505;-73
2022/02/05 06:52:36;;;;;;;3.37;1.95;;;;;;;2.43;90.54;99395.69;1666944;86;25610;-72
2022/02/05 06:55:04;;;;;;;5.12;1.75;;;;;;;2.42;90.49;99420.81;1666976;86;25427;-72
2022/02/05 06:57:31;;;;;;;2.58;2.00;;;;;;;2.41;90.45;99413.86;1667069;86;25609;-71
2022/02/05 06:59:59;;;;;;;2.40;1.98;;;;;;;2.40;90.28;99419.75;1667049;86;25672;-73
2022/02/05 07:02:25;;;;;;;3.45;1.75;;;;;;;2.40;90.70;99425.59;1667032;86;27322;-72
2022/02/05 07:04:52;;;;;;;7.35;2.45;;;;;;;2.40;90.55;99432.27;1666939;86;25436;-72
2022/02/05 07:07:18;;;;;;;9.60;2.12;;;;;;;2.43;90.65;99447.74;1667015;86;25581;-72
2022/02/05 07:09:47;;;;;;;3.80;2.47;;;;;;;2.46;90.82;99425.84;1667035;86;25700;-72
2022/02/05 07:12:13;;;;;;;4.45;1.80;;;;;;;2.51;90.66;99442.38;1667237;86;25507;-72
2022/02/05 07:14:54;;;;;;;5.22;2.52;;;;;;;2.56;90.44;99449.02;1667052;86;27958;-71
2022/02/05 07:17:24;;;;;;;3.00;2.15;;;;;;;2.59;90.25;99463.16;1665133;86;25696;-72
2022/02/05 07:22:31;;;;;;;3.25;1.65;;;;;;;2.59;89.50;99465.83;1667024;86;25620;-72
2022/02/05 07:29:13;;;;;;;4.53;2.70;;;;;;;2.60;89.06;99462.06;1667120;85;25479;-71
2022/02/05 07:30:14;;;;;;;4.25;2.33;;;;;;;2.63;89.45;99476.20;1666952;86;25656;-72
2022/02/05 07:32:41;;;;;;;5.20;2.20;;;;;;;2.65;89.20;99483.40;1667025;86;25223;-72
2022/02/05 07:35:08;;;;;;;3.40;2.30;;;;;;;2.68;88.51;99495.41;1666991;86;25727;-71
2022/02/05 07:37:34;;;;;;;4.08;2.60;;;;;;;2.69;88.06;99496.99;1666993;85;25666;-72
2022/02/05 07:40:01;;;;;;;4.67;2.52;;;;;;;2.70;88.22;99490.59;1673836;84;27365;-72
2022/02/05 07:42:27;;;;;;;7.20;2.40;;;;;;;2.75;88.59;99508.71;1616731;87;25502;-72
2022/02/05 07:44:54;;;;;;;5.50;2.47;;;;;;;2.79;88.01;99500.42;1669904;85;25579;-71
2022/02/05 07:47:23;;;;;;;5.60;2.05;;;;;;;2.84;87.42;99508.92;1629964;86;25662;-71
2022/02/05 07:49:50;;;;;;;6.50;2.00;;;;;;;2.87;87.19;99515.05;1666051;86;25438;-71
2022/02/05 07:52:16;;;;;;;4.47;2.27;;;;;;;2.91;87.42;99520.13;1666054;86;27329;-71
2022/02/05 07:54:43;;;;;;;3.35;1.80;;;;;;;2.97;87.33;99520.33;1665868;85;25529;-71
2022/02/05 07:57:10;;;;;;;6.33;2.10;;;;;;;3.05;87.46;99522.14;1647148;86;25585;-71
2022/02/05 07:59:37;;;;;;;6.85;1.95;;;;;;;3.11;86.87;99521.05;1637525;87;26163;-71
2022/02/05 08:02:05;;;;;;;2.85;1.70;;;;;;;3.12;85.80;99530.67;1637571;86;25463;-71
2022/02/05 08:04:32;;;;;;;4.35;2.00;;;;;;;3.13;84.99;99536.27;1637552;86;27969;-71
2022/02/05 08:06:59;;;;;;;7.20;2.90;;;;;;;3.11;84.91;99544.55;1639521;87;25607;-71
2022/02/05 08:09:40;;;;;;;9.13;2.45;;;;;;;3.09;84.22;99545.38;1672808;85;25428;-71
2022/02/05 08:12:03;;;;;;;6.85;2.45;;;;;;;3.09;84.41;99548.05;1696046;84;25703;-72
2022/02/05 08:14:28;;;;;;;7.25;2.05;;;;;;;3.11;84.91;99553.91;1697291;84;25630;-70
2022/02/05 08:17:00;;;;;;;6.87;2.58;;;;;;;3.11;83.98;99547.22;1697874;84;27400;-70
2022/02/05 08:19:23;;;;;;;7.75;2.27;;;;;;;3.10;83.15;99542.97;1697445;83;25563;-70
2022/02/05 08:21:50;;;;;;;7.15;2.27;;;;;;;3.14;84.31;99561.38;1698420;84;25417;-71
2022/02/05 08:24:17;;;;;;;4.40;2.47;;;;;;;3.21;84.93;99565.08;1698335;84;25647;-72
2022/02/05 08:26:44;;;;;;;5.47;2.60;;;;;;;3.28;84.84;99561.55;1698298;84;25502;-71
2022/02/05 08:29:12;;;;;;;10.08;2.55;;;;;;;3.52;83.51;99565.67;1698105;84;27344;-71
2022/02/05 08:31:38;;;;;;;5.60;2.00;;;;;;;3.79;84.04;99568.38;1698232;84;25815;-69
2022/02/05 08:34:05;;;;;;;6.75;2.15;;;;;;;4.16;83.85;99572.31;1698158;84;25493;-70
2022/02/05 08:36:41;;;;;;;7.67;2.17;;;;;;;4.49;84.44;99575.98;1698156;84;25659;-70
2022/02/05 08:39:08;;;;;;;6.72;1.87;;;;;;;4.64;83.10;99573.63;1698266;84;25621;-71
2022/02/05 08:41:35;;;;;;;6.37;2.52;;;;;;;4.84;82.68;99576.61;1698230;84;27407;-71
2022/02/05 08:44:02;;;;;;;7.92;1.70;;;;;;;4.97;80.96;99589.03;1698154;84;25784;-70
2022/02/05 08:46:31;;;;;;;8.20;3.83;;;;;;;5.07;79.23;99580.06;1693737;84;25637;-71
2022/02/05 08:48:57;;;;;;;6.37;3.30;;;;;;;5.03;79.32;99591.36;1663894;85;26184;-70
2022/02/05 08:51:23;;;;;;;5.62;1.90;;;;;;;5.22;81.11;99581.98;1664037;85;25430;-70
2022/02/05 08:53:50;;;;;;;6.45;2.02;;;;;;;5.52;80.85;99596.03;1664042;85;27457;-71
2022/02/05 08:56:16;;;;;;;8.38;2.05;;;;;;;5.76;79.29;99606.65;1663939;85;25421;-70
2022/02/05 08:58:43;;;;;;;7.30;1.92;;;;;;;5.82;77.08;99606.56;1664174;85;25577;-70
2022/02/05 09:01:36;;;;;;;8.88;3.17;;;;;;;5.94;77.69;99606.89;1663944;85;25630;-70
2022/02/05 09:03:48;;;;;;;6.05;2.08;;;;;;;5.93;76.88;99624.89;1659135;85;25444;-71
2022/02/05 09:06:14;;;;;;;7.97;3.27;;;;;;;5.85;76.21;99616.72;1690264;84;28128;-70
2022/02/05 09:08:51;;;;;;;7.05;2.30;;;;;;;5.74;75.61;99618.78;1690351;84;25588;-70
2022/02/05 09:16:15;;;;;;;9.13;3.67;;;;;;;5.26;75.53;99629.67;1700574;83;25409;-72
2022/02/05 09:18:43;;;;;;;6.47;3.87;;;;;;;5.19;76.27;99633.52;1700464;83;27342;-71
2022/02/05 09:21:11;;;;;;;5.87;2.50;;;;;;;5.16;76.43;99632.75;1700547;84;25423;-71
2022/02/05 09:23:45;;;;;;;6.50;2.33;;;;;;;5.07;73.82;99635.02;1700455;83;25432;-70
2022/02/05 09:26:15;;;;;;;6.08;1.95;;;;;;;4.94;75.55;99641.86;1700454;83;25573;-70
2022/02/05 09:28:42;;;;;;;4.33;1.85;;;;;;;4.82;76.10;99647.11;1700426;83;27400;-70
2022/02/05 09:33:39;;;;;;;8.45;2.80;;;;;;;4.58;76.26;99648.46;1671552;84;25721;-70
2022/02/05 09:36:07;;;;;;;6.17;2.33;;;;;;;4.51;75.98;99643.17;1701889;83;25401;-70
2022/02/05 09:38:35;;;;;;;8.58;3.35;;;;;;;4.47;76.37;99657.67;1701886;83;25663;-70
2022/02/05 09:41:02;;;;;;;7.37;2.60;;;;;;;4.45;77.33;99658.50;1702009;84;25298;-70
2022/02/05 09:43:30;;;;;;;7.05;3.15;;;;;;;4.43;76.56;99660.67;1701865;83;27295;-70
2022/02/05 09:45:57;;;;;;;7.50;3.20;;;;;;;4.40;77.08;99678.64;1699642;83;25720;-70
2022/02/05 09:48:30;;;;;;;5.17;2.87;;;;;;;4.39;76.82;99663.64;1691382;84;25527;-70
2022/02/05 09:51:04;;;;;;;7.33;2.90;;;;;;;4.32;76.68;99665.31;1691342;84;26179;-70
2022/02/05 09:53:27;;;;;;;7.50;2.98;;;;;;;4.32;76.62;99689.41;1690777;84;25591;-71
2022/02/05 09:55:53;;;;;;;6.53;2.42;;;;;;;4.25;76.76;99663.50;1691318;84;27332;-70
2022/02/05 09:58:19;;;;;;;7.35;3.02;;;;;;;4.29;77.66;99673.37;1665743;84;25690;-71
2022/02/05 10:01:15;;;;;;;8.60;3.02;;;;;;;4.32;77.03;99676.02;1691440;84;25694;-72
2022/02/05 10:03:38;;;;;;;9.85;3.35;;;;;;;4.35;78.15;99698.77;1686740;83;25651;-71
2022/02/05 10:06:13;;;;;;;8.20;3.10;;;;;;;4.31;77.53;99699.88;1642373;85;33572;-70
2022/02/05 10:09:08;;;;;;;7.62;2.80;;;;;;;4.29;76.97;99684.09;1638932;87;27941;-71
2022/02/05 10:11:59;;;;;;;8.48;2.70;;;;;;;4.25;77.87;99682.24;1642671;85;26438;-71
2022/02/05 10:14:29;;;;;;;7.87;2.70;;;;;;;4.18;76.91;99696.50;1693146;84;25696;-70
2022/02/05 10:17:04;;;;;;;7.53;2.90;;;;;;;4.16;77.14;99700.00;1691397;84;25611;-70
2022/02/05 10:19:50;;;;;;;8.73;2.90;;;;;;;4.14;77.57;99698.13;1694857;84;25718;-70
2022/02/05 10:22:23;;;;;;;9.25;2.90;;;;;;;4.10;77.21;99703.23;1696572;84;27406;-71
2022/02/05 10:25:00;;;;;;;6.53;3.20;;;;;;;4.13;78.01;99708.05;1690595;84;25477;-71
2022/02/05 10:27:33;;;;;;;9.68;3.55;;;;;;;4.17;77.19;99702.41;1695250;84;25736;-72
2022/02/05 10:30:14;;;;;;;8.33;3.45;;;;;;;4.23;78.09;99713.86;1694920;84;26201;-70
2022/02/05 10:32:48;;;;;;;10.50;2.65;;;;;;;4.28;78.23;99695.86;1690434;84;25725;-72
2022/02/05 10:35:36;;;;;;;7.58;3.12;;;;;;;4.54;75.97;99698.30;1694874;83;26953;-70
2022/02/05 10:43:08;;;;;;;8.53;3.02;;;;;;;4.75;76.54;99704.80;1696000;84;25912;-70
2022/02/05 10:45:46;;;;;;;8.08;2.77;;;;;;;4.71;77.17;99698.41;1694890;84;26102;-70
2022/02/05 10:48:21;;;;;;;7.67;3.60;;;;;;;4.75;77.41;99692.73;1723171;83;28002;-70
2022/02/05 10:50:55;;;;;;;8.13;3.27;;;;;;;4.79;76.20;99701.27;1660548;84;25413;-70
2022/02/05 10:53:31;;;;;;;11.53;3.27;;;;;;;4.73;76.17;99703.73;1684215;84;25648;-69
2022/02/05 11:07:19;;;;;;;6.03;4.28;;;;;;;4.40;78.37;99711.56;1691670;84;25738;-72
2022/02/05 11:09:57;;;;;;;10.15;4.20;;;;;;;4.35;78.75;99722.31;1707041;83;26278;-69
2022/02/05 11:20:05;;;;;;;;;;;;;;;4.30;79.05;99718.34;1714881;83;25697;-72
2022/02/05 11:22:36;;;;;;;10.30;3.83;;;;;;;4.29;79.58;99724.25;1719970;82;25622;-71
2022/02/05 11:25:06;;;;;;;7.53;3.85;;;;;;;4.28;78.84;99725.87;1723764;82;25792;-72
2022/02/05 11:27:32;;;;;;;11.78;4.03;;;;;;;4.26;79.58;99726.69;1709386;83;27323;-70
2022/02/05 11:30:36;;;;;;;7.50;4.35;;;;;;;4.21;79.59;99730.20;1712339;83;25642;-72
2022/02/05 11:33:28;;;;;;;9.10;4.42;;;;;;;4.24;79.65;99732.84;1700120;83;25684;-71
2022/02/05 11:36:39;;;;;;;10.68;4.97;;;;;;;4.19;79.56;99732.36;1705601;83;25712;-71
2022/02/05 11:38:33;;;;;;;9.25;4.95;;;;;;;4.14;79.25;99739.09;1714045;83;25614;-72
2022/02/05 11:41:02;;;;;;;13.85;5.50;;;;;;;4.11;79.39;99739.09;1699650;82;27407;-71
2022/02/05 11:43:36;;;;;;;14.28;4.83;;;;;;;4.11;79.63;99733.75;1714834;83;29171;-71
2022/02/05 11:46:13;;;;;;;11.10;4.97;;;;;;;4.10;79.91;99731.34;1713327;83;25742;-70
2022/02/05 11:48:55;;;;;;;9.13;4.65;;;;;;;4.08;78.72;99732.96;1725316;83;26305;-71
2022/02/05 11:51:28;;;;;;;11.18;5.67;;;;;;;4.04;79.03;99726.58;1680485;85;25739;-71
2022/02/05 11:54:05;;;;;;;11.28;4.83;;;;;;;4.02;79.64;99737.28;1676512;84;28160;-71
2022/02/05 11:56:50;;;;;;;6.60;4.45;;;;;;;4.00;79.64;99732.76;1690135;84;25370;-71
2022/02/05 11:59:33;;;;;;;15.65;5.60;;;;;;;3.96;79.21;99735.20;1661878;86;25385;-71
2022/02/05 12:02:15;;;;;;;15.48;4.67;;;;;;;3.91;79.71;99737.91;1692029;84;25622;-71
2022/02/05 12:04:41;;;;;;;11.20;4.67;;;;;;;3.88;79.56;99741.13;1699871;83;25305;-71
2022/02/05 12:07:11;;;;;;;11.75;4.60;;;;;;;3.87;79.97;99744.91;1719440;83;27329;-71
2022/02/05 12:09:41;;;;;;;14.50;4.72;;;;;;;3.85;79.69;99743.84;1707770;83;25790;-72
2022/02/05 12:12:37;;;;;;;10.18;4.30;;;;;;;3.84;79.57;99746.79;1706231;83;25792;-72
2022/02/05 12:15:17;;;;;;;10.43;4.33;;;;;;;3.82;79.24;99752.96;1596141;86;25782;-71
2022/02/05 12:21:09;;;;;;;11.75;5.30;;;;;;;3.80;78.59;99742.53;1609298;89;28157;-71
2022/02/05 12:26:32;;;;;;;13.32;5.00;;;;;;;3.82;79.13;99747.61;1607261;88;25859;-71
2022/02/05 12:29:01;;;;;;;11.50;5.75;;;;;;;3.80;79.47;99749.22;1609188;88;25811;-71
2022/02/05 12:31:36;;;;;;;10.97;4.63;;;;;;;3.82;79.72;99745.73;1607381;88;25752;-71
2022/02/05 12:34:10;;;;;;;8.95;4.78;;;;;;;3.83;79.60;99741.16;1631819;86;27257;-72
2022/02/05 12:36:49;;;;;;;9.13;4.75;;;;;;;3.84;79.98;99744.11;1613212;86;25654;-71
2022/02/05 12:39:28;;;;;;;12.18;4.78;;;;;;;3.86;80.23;99740.07;1610007;87;25887;-71
2022/02/05 12:42:00;;;;;;;8.63;4.60;;;;;;;3.88;80.40;99737.12;1629786;86;26294;-71
2022/02/05 12:44:30;;;;;;;12.95;4.92;;;;;;;3.91;80.92;99739.24;1615675;86;25734;-72
2022/02/05 12:47:04;;;;;;;12.45;4.80;;;;;;;3.91;80.96;99737.36;1609187;88;27345;-72
2022/02/05 12:49:49;;;;;;;9.05;4.72;;;;;;;3.91;81.09;99748.06;1607170;88;25921;-71
2022/02/05 12:52:08;;;;;;;11.63;5.12;;;;;;;3.92;80.76;99746.20;1689337;83;25776;-72
2022/02/05 12:54:35;;;;;;;6.67;3.90;;;;;;;3.90;80.74;99769.77;1700024;83;26151;-73
2022/02/05 12:57:03;;;;;;;10.68;5.03;;;;;;;3.81;80.35;99760.16;1689488;84;25717;-71
2022/02/05 12:59:36;;;;;;;8.83;4.47;;;;;;;3.69;80.99;99775.76;1705163;83;27330;-72
2022/02/05 13:02:09;;;;;;;8.50;4.80;;;;;;;3.65;81.67;99776.84;1724661;83;25317;-71
2022/02/05 13:04:39;;;;;;;11.48;5.28;;;;;;;3.57;82.38;99777.96;1682627;84;25751;-72
2022/02/05 13:07:24;;;;;;;10.95;4.67;;;;;;;3.49;82.46;99774.80;1644452;86;25673;-71
2022/02/05 13:09:59;;;;;;;9.40;5.35;;;;;;;3.50;83.06;99774.24;1670909;85;25680;-71
2022/02/05 13:12:37;;;;;;;10.30;5.22;;;;;;;3.63;83.98;99775.54;1692794;84;27418;-71
2022/02/05 13:15:22;;;;;;;11.95;5.28;;;;;;;3.95;85.83;99773.76;1635639;86;25769;-71
2022/02/05 13:34:25;;;;;;;11.68;6.12;;;;;;;4.11;82.85;99759.72;1669798;84;25619;-71
2022/02/05 13:37:00;;;;;;;10.38;6.25;;;;;;;4.10;82.87;99758.11;1676277;84;25265;-71
2022/02/05 13:42:24;;;;;;;13.45;5.90;;;;;;;4.06;82.58;99757.87;1694738;84;25650;-71
2022/02/05 13:45:02;;;;;;;10.65;6.10;;;;;;;4.03;81.98;99763.77;1700503;83;25406;-71
2022/02/05 13:47:48;;;;;;;12.35;5.83;;;;;;;4.04;81.87;99776.64;1694956;83;25616;-70
2022/02/05 13:50:25;;;;;;;13.45;6.42;;;;;;;4.05;81.69;99787.59;1747566;82;25222;-71
2022/02/05 13:52:55;;;;;;;12.75;6.35;;;;;;;4.03;81.56;99781.17;1722676;82;27383;-71
2022/02/05 13:55:29;;;;;;;11.20;5.62;;;;;;;4.29;83.19;99783.15;1737863;82;25740;-71
2022/02/05 13:58:14;;;;;;;10.30;5.37;;;;;;;4.63;82.19;99768.12;1733448;82;25734;-72
2022/02/05 14:00:53;;;;;;;11.55;5.30;;;;;;;4.92;82.55;99765.98;1668465;83;25708;-71
2022/02/05 14:03:35;;;;;;;14.40;5.85;;;;;;;5.01;80.13;99763.75;1694655;84;25486;-70
2022/02/05 14:06:10;;;;;;;9.73;5.33;;;;;;;5.01;77.74;99769.66;1691669;84;27255;-71
2022/02/05 14:08:53;;;;;;;10.60;5.25;;;;;;;5.13;79.69;99762.02;1720872;82;25570;-71
2022/02/05 14:11:31;;;;;;;16.75;7.53;;;;;;;5.28;78.73;99773.11;1740334;82;25572;-71
2022/02/05 14:14:13;;;;;;;12.90;5.58;;;;;;;5.29;77.88;99767.20;1714735;83;26239;-71
2022/02/05 14:16:39;;;;;;;13.62;5.40;;;;;;;5.20;77.37;99777.20;1715036;82;25665;-70
2022/02/05 14:19:06;;;;;;;10.80;5.37;;;;;;;5.08;77.52;99789.42;1715177;83;27915;-70
2022/02/05 14:21:47;;;;;;;16.17;5.87;;;;;;;4.98;77.42;99782.28;1715556;83;25474;-71
2022/02/05 14:24:30;;;;;;;12.93;5.80;;;;;;;4.88;77.03;99781.05;1715393;83;25575;-70
2022/02/05 14:27:22;;;;;;;14.90;6.70;;;;;;;4.75;76.48;99794.55;1715434;83;26691;-71
2022/02/05 14:29:56;;;;;;;11.75;5.20;;;;;;;4.67;77.53;99798.66;1714683;82;25420;-71
2022/02/05 14:32:42;;;;;;;8.68;5.05;;;;;;;4.58;77.73;99807.02;1713201;83;27418;-71
2022/02/05 14:35:08;;;;;;;8.43;5.05;;;;;;;4.45;78.18;99809.27;1712982;82;25410;-71
2022/02/05 14:42:50;;;;;;;10.68;5.25;;;;;;;3.91;79.38;99820.86;1715661;83;25613;-71
2022/02/05 14:45:17;;;;;;;9.10;4.30;;;;;;;3.77;79.85;99826.02;1715641;83;27377;-71
2022/02/05 14:47:43;;;;;;;11.68;5.72;;;;;;;3.63;80.19;99817.00;1710222;83;25741;-71
2022/02/05 14:50:10;;;;;;;9.10;5.42;;;;;;;3.55;80.50;99838.41;1695105;84;25599;-71
2022/02/05 14:52:36;;;;;;;8.85;4.70;;;;;;;3.50;80.92;99837.09;1695013;84;25648;-71
2022/02/05 14:55:03;;;;;;;8.23;4.03;;;;;;;3.47;81.28;99843.77;1695109;84;25491;-71
2022/02/05 14:57:30;;;;;;;9.95;4.80;;;;;;;3.44;81.35;99844.84;1695119;84;27870;-71